Startpagina
METAR-TAF:

METAR-TAF

Vliegvelden :

Cabinda, Angola

breedte: 5-35-50S, lengte: 12-11-17E, hoogte: 20 m

Actueel weer

Dit bericht is 1 uur en het 6 minuten geleden gemaakt, om 10:00 UTC
Wind 10 kt uit het zuiden
Temperatuur 26°C
Vochtigheid 70%
Druk 1017 hPa
Zicht 10 km of meer
Verspreide wolken op 1500 ft

METAR: FNCA 251000Z 17010KT 9999 SCT015 26/20 Q1017 NOSIG

Tijdstip: 12:06 (11:06 UTC)

Verwachting

Dit bericht is 12 uur en het 6 minuten geleden gemaakt, om 23:00 UTC
Verwachting geldig van 25 om 00 UTC tot 25 om 12 UTC
Wind 7 kt uit het zuiden
Zicht 10 km of meer
Weinig wolken op 1200 ft
Wijzigt naar
van 25 om 03 UTC tot 25 om 07 UTC
Zicht: 5000 m
Gebroken wolken op 4000 ft
nevel
Tijdelijke
van 25 om 10 UTC tot 25 om 12 UTC
Wind 6 kt uit het zuidzuidwesten
Verspreide wolken op 2200 ft

TAF: FNCA 242300Z 2500/2512 19007KT 9999 FEW012 BECMG 2503/2507 5000 BR BKN040 TEMPO 2510/2512 20006KT SCT022

Waarnemingen en weersverwachtingen van meer dan 4000 vliegvelden (METAR en TAF).

De beschikbare stations zijn de gele en rode punten op de kaart.

Ga met uw muis naar het station om de naam te zien.

Klik dan om waarnemingen en weersverwachtingen te zien.

kaart wijzigen: klik op de groene knoppen met een zwart kruis om in te zoomen, op de groene knop met een streepje om uit te zoomen of op de groene pijlen voor aangrenzende kaarten.


METAR-TAF: